Time;durP1;ratioP1;P1;durP2;ratioP2;P2;SDS_P1;SDS_P2;PMS_P1;PMS_P2;Temp;Humidity;BMP_temperature;BMP_pressure;BME280_temperature;BME280_humidity;BME280_pressure;Samples;Min_cycle;Max_cycle;Signal;HPM_P1;HPM_P2
2022/05/02 00:00:48;;;;;;;1.65;1.55;;;19.00;39.30;;;;;;5036914;28;20201;-87
2022/05/02 00:03:14;;;;;;;1.75;1.50;;;19.00;39.00;;;;;;5037024;28;20186;-83
2022/05/02 00:05:44;;;;;;;2.28;1.90;;;19.00;39.20;;;;;;5036593;28;20637;-89
2022/05/02 00:08:10;;;;;;;1.75;1.65;;;19.00;39.60;;;;;;5036163;28;20178;-84
2022/05/02 00:10:37;;;;;;;1.80;1.70;;;19.00;39.00;;;;;;5053278;28;20162;-87
2022/05/02 00:13:06;;;;;;;2.47;1.73;;;18.90;38.90;;;;;;5036208;28;20166;-86
2022/05/02 00:15:32;;;;;;;2.28;1.75;;;19.00;39.10;;;;;;5037084;28;20528;-83
2022/05/02 00:17:59;;;;;;;2.95;1.80;;;19.00;39.00;;;;;;5057228;28;20649;-84
2022/05/02 00:20:28;;;;;;;2.38;1.60;;;18.90;38.90;;;;;;5040771;28;20164;-85
2022/05/02 00:22:53;;;;;;;2.13;1.70;;;18.90;39.10;;;;;;5057160;28;20190;-86
2022/05/02 00:25:20;;;;;;;2.22;1.88;;;19.00;39.10;;;;;;5040964;28;20162;-87
2022/05/02 00:27:46;;;;;;;2.42;1.95;;;18.90;39.60;;;;;;5040821;28;20161;-86
2022/05/02 00:30:15;;;;;;;2.45;1.88;;;19.00;39.10;;;;;;5040507;28;20210;-84
2022/05/02 00:32:41;;;;;;;3.90;1.90;;;18.90;39.00;;;;;;5040723;28;20261;-87
2022/05/02 00:35:08;;;;;;;3.75;2.20;;;18.90;39.10;;;;;;5040321;28;20197;-90
2022/05/02 00:37:37;;;;;;;1.80;1.70;;;18.90;39.20;;;;;;5056918;28;20162;-88
2022/05/02 00:40:06;;;;;;;2.10;1.90;;;18.90;39.00;;;;;;5039540;28;20222;-86
2022/05/02 00:42:36;;;;;;;1.80;1.70;;;18.90;39.10;;;;;;5038980;28;20216;-88
2022/05/02 00:45:10;;;;;;;2.20;2.00;;;19.00;39.20;;;;;;5039413;28;20182;-86
2022/05/02 00:47:39;;;;;;;4.03;1.90;;;18.90;39.10;;;;;;5023253;28;20234;-88
2022/05/02 00:50:11;;;;;;;2.35;1.70;;;18.90;39.10;;;;;;5039444;28;20238;-85
2022/05/02 00:52:39;;;;;;;1.60;1.50;;;18.90;39.20;;;;;;5022956;28;20683;-83
2022/05/02 00:55:10;;;;;;;1.70;1.60;;;18.90;39.20;;;;;;5039800;28;20189;-86
2022/05/02 00:57:35;;;;;;;2.50;1.90;;;18.90;39.20;;;;;;5056945;28;20173;-89
2022/05/02 01:00:04;;;;;;;2.72;1.83;;;18.90;39.20;;;;;;5023487;28;20162;-88
2022/05/02 01:02:30;;;;;;;3.00;1.65;;;18.90;39.20;;;;;;5040201;28;20247;-87
2022/05/02 01:04:56;;;;;;;1.80;1.70;;;18.90;39.40;;;;;;5040414;28;20217;-86
2022/05/02 01:07:21;;;;;;;3.35;2.00;;;18.90;39.30;;;;;;5040328;28;20169;-85
2022/05/02 01:09:48;;;;;;;3.58;1.98;;;18.90;39.30;;;;;;5056893;28;20150;-85
2022/05/02 01:12:24;;;;;;;2.08;1.77;;;18.90;39.50;;;;;;5056535;28;20162;-83
2022/05/02 01:14:54;;;;;;;2.17;1.60;;;18.90;39.50;;;;;;5040784;28;20617;-84
2022/05/02 01:17:23;;;;;;;2.47;1.77;;;18.90;39.40;;;;;;5040145;28;20165;-87
2022/05/02 01:19:49;;;;;;;1.90;1.50;;;18.80;39.40;;;;;;5056820;28;20198;-84
2022/05/02 01:22:15;;;;;;;2.03;1.92;;;18.90;39.60;;;;;;5040379;28;20637;-87
2022/05/02 01:24:46;;;;;;;2.42;1.80;;;18.80;39.60;;;;;;5023604;28;20261;-86
2022/05/02 01:27:14;;;;;;;3.05;2.00;;;18.80;39.60;;;;;;5021768;28;20209;-85
2022/05/02 01:29:42;;;;;;;2.05;1.85;;;18.80;39.50;;;;;;5040106;28;20208;-86
2022/05/02 01:32:13;;;;;;;1.88;1.77;;;18.80;39.50;;;;;;5056286;28;20678;-85
2022/05/02 01:34:40;;;;;;;1.70;1.60;;;18.70;39.50;;;;;;5023051;28;20193;-86
2022/05/02 01:37:11;;;;;;;3.60;1.83;;;18.80;39.70;;;;;;5039285;28;20178;-86
2022/05/02 01:39:38;;;;;;;2.05;1.80;;;18.90;39.90;;;;;;5022589;28;20189;-87
2022/05/02 01:42:08;;;;;;;1.73;1.63;;;18.80;39.60;;;;;;5039088;28;20201;-91
2022/05/02 01:44:34;;;;;;;2.10;1.90;;;18.80;39.60;;;;;;5040263;28;20150;-85
2022/05/02 01:46:59;;;;;;;2.03;1.80;;;18.80;39.70;;;;;;5055904;28;20233;-86
2022/05/02 01:49:27;;;;;;;2.25;1.85;;;18.80;39.70;;;;;;5040117;28;20205;-85
2022/05/02 01:51:57;;;;;;;1.95;1.75;;;18.80;39.60;;;;;;5039727;28;20182;-87
2022/05/02 01:54:23;;;;;;;2.17;1.98;;;18.80;39.70;;;;;;5024153;28;20236;-85
2022/05/02 01:56:49;;;;;;;2.00;1.85;;;18.80;39.90;;;;;;5040177;28;20624;-89
2022/05/02 01:59:16;;;;;;;1.50;1.40;;;18.80;39.90;;;;;;5022991;28;20173;-86
2022/05/02 02:01:46;;;;;;;1.73;1.60;;;18.80;39.90;;;;;;5038859;28;20567;-84
2022/05/02 02:06:53;;;;;;;2.33;1.85;;;18.80;40.00;;;;;;5056709;28;20609;-88
2022/05/02 02:09:22;;;;;;;2.42;1.65;;;18.70;39.80;;;;;;5038682;28;20531;-86
2022/05/02 02:11:52;;;;;;;2.00;1.65;;;18.80;39.90;;;;;;5039056;28;20607;-85
2022/05/02 02:14:19;;;;;;;2.35;2.00;;;18.70;40.00;;;;;;5038681;28;20651;-86
2022/05/02 02:16:51;;;;;;;2.03;1.73;;;18.70;39.90;;;;;;5039626;28;20316;-83
2022/05/02 02:19:17;;;;;;;1.85;1.75;;;18.70;40.00;;;;;;5056109;28;20154;-85
2022/05/02 02:21:42;;;;;;;2.05;1.70;;;18.70;40.10;;;;;;5039285;28;20185;-84
2022/05/02 02:24:08;;;;;;;2.22;2.00;;;18.70;40.00;;;;;;5039213;28;20193;-86
2022/05/02 02:26:36;;;;;;;2.58;1.85;;;18.80;40.00;;;;;;5039752;28;20264;-87
2022/05/02 02:29:03;;;;;;;1.70;1.60;;;18.70;40.00;;;;;;5039513;28;20173;-87
2022/05/02 02:31:31;;;;;;;2.15;1.95;;;18.70;40.00;;;;;;5039452;28;20146;-86
2022/05/02 02:33:56;;;;;;;1.75;1.63;;;18.70;40.10;;;;;;5022313;28;20224;-86
2022/05/02 02:36:24;;;;;;;1.73;1.63;;;18.70;40.00;;;;;;5055745;28;20170;-88
2022/05/02 02:38:50;;;;;;;2.67;2.05;;;18.70;40.10;;;;;;5055392;28;20197;-86
2022/05/02 02:41:18;;;;;;;3.58;2.03;;;18.80;40.10;;;;;;5038543;28;20527;-85
2022/05/02 02:43:48;;;;;;;1.92;1.73;;;18.70;40.20;;;;;;5055165;28;20162;-84
2022/05/02 02:46:14;;;;;;;3.08;1.70;;;18.70;40.10;;;;;;5037991;28;20231;-88
2022/05/02 02:48:41;;;;;;;2.05;1.83;;;18.70;40.10;;;;;;5022216;28;20193;-87
2022/05/02 02:51:14;;;;;;;1.75;1.52;;;18.70;40.30;;;;;;5037529;28;20182;-87
2022/05/02 02:53:48;;;;;;;2.50;1.90;;;18.80;40.20;;;;;;5020535;28;20529;-90
2022/05/02 02:56:18;;;;;;;1.92;1.70;;;18.60;40.20;;;;;;5037440;28;20177;-87
2022/05/02 02:58:46;;;;;;;1.75;1.65;;;18.70;40.40;;;;;;5020807;28;20178;-86
2022/05/02 03:01:15;;;;;;;3.75;1.90;;;18.70;40.40;;;;;;5036930;28;20177;-86
2022/05/02 03:03:41;;;;;;;1.85;1.65;;;18.70;40.20;;;;;;5020594;28;20246;-88
2022/05/02 03:06:10;;;;;;;1.63;1.52;;;18.70;40.20;;;;;;5038020;28;20218;-87
2022/05/02 03:08:41;;;;;;;2.20;2.00;;;18.70;40.40;;;;;;5037250;28;20239;-85
2022/05/02 03:11:11;;;;;;;2.42;1.88;;;18.70;40.30;;;;;;5037236;28;20222;-89
2022/05/02 03:13:43;;;;;;;1.90;1.70;;;18.70;40.20;;;;;;5020217;28;20680;-88
2022/05/02 03:16:10;;;;;;;2.22;1.85;;;18.70;40.30;;;;;;5020393;28;20185;-85
2022/05/02 03:18:36;;;;;;;2.20;1.80;;;18.70;40.50;;;;;;5037876;28;20176;-86
2022/05/02 03:21:03;;;;;;;2.38;1.90;;;18.70;40.40;;;;;;5037964;28;20595;-86
2022/05/02 03:23:29;;;;;;;1.98;1.83;;;18.60;40.30;;;;;;5037462;28;20208;-86
2022/05/02 03:25:57;;;;;;;2.08;1.85;;;18.60;40.50;;;;;;5037291;28;20166;-89
2022/05/02 03:28:24;;;;;;;2.95;1.77;;;18.70;40.50;;;;;;5054418;28;20245;-84
2022/05/02 03:30:54;;;;;;;3.80;1.83;;;18.60;40.50;;;;;;5037248;28;20196;-87
2022/05/02 03:33:23;;;;;;;2.17;1.80;;;18.60;40.50;;;;;;5054192;28;20162;-87
2022/05/02 03:35:53;;;;;;;2.03;1.70;;;18.60;40.50;;;;;;5036658;28;20196;-87
2022/05/02 03:38:22;;;;;;;1.65;1.55;;;18.70;40.60;;;;;;5020094;28;20559;-87
2022/05/02 03:40:51;;;;;;;1.70;1.55;;;18.70;40.50;;;;;;5020023;28;20181;-84
2022/05/02 03:43:21;;;;;;;3.03;1.73;;;18.60;40.50;;;;;;5037137;28;20225;-87
2022/05/02 03:45:51;;;;;;;2.00;1.80;;;18.70;40.60;;;;;;5037148;28;20586;-86
2022/05/02 03:48:20;;;;;;;2.00;1.80;;;18.70;40.60;;;;;;5020498;28;20182;-86
2022/05/02 03:50:50;;;;;;;1.90;1.70;;;18.60;40.50;;;;;;5037683;28;20221;-83
2022/05/02 03:53:19;;;;;;;2.05;1.80;;;18.60;40.60;;;;;;5041006;28;20247;-87
2022/05/02 03:55:45;;;;;;;2.00;1.80;;;18.60;40.60;;;;;;5040828;28;20649;-84
2022/05/02 03:58:12;;;;;;;1.60;1.50;;;18.70;40.70;;;;;;5058085;28;20162;-90
2022/05/02 04:00:38;;;;;;;2.25;1.90;;;18.60;40.60;;;;;;5040780;28;20154;-89
2022/05/02 04:03:05;;;;;;;2.45;1.80;;;18.50;40.80;;;;;;5040465;28;20289;-83
2022/05/02 04:05:32;;;;;;;1.90;1.80;;;18.60;40.80;;;;;;5040715;28;20271;-88
2022/05/02 04:07:57;;;;;;;2.70;1.58;;;18.60;40.80;;;;;;5041259;28;20273;-87
2022/05/02 04:10:24;;;;;;;2.42;1.70;;;18.60;40.80;;;;;;5040730;28;20204;-86
2022/05/02 04:12:49;;;;;;;2.08;1.70;;;18.60;40.80;;;;;;5040767;28;20162;-83
2022/05/02 04:15:15;;;;;;;3.67;1.90;;;18.60;40.80;;;;;;5040774;28;20239;-87
2022/05/02 04:17:50;;;;;;;2.03;1.70;;;18.60;40.80;;;;;;5024555;28;20170;-86
2022/05/02 04:20:19;;;;;;;2.08;1.77;;;18.60;41.00;;;;;;5023788;28;20181;-83
2022/05/02 04:22:49;;;;;;;1.83;1.73;;;18.60;40.90;;;;;;5023158;28;20290;-85
2022/05/02 04:25:19;;;;;;;2.30;1.77;;;18.50;41.00;;;;;;5040054;28;20178;-84
2022/05/02 04:27:45;;;;;;;2.92;1.67;;;18.60;41.00;;;;;;5024196;28;20205;-83
2022/05/02 04:30:13;;;;;;;1.98;1.77;;;18.60;41.10;;;;;;5041671;28;20165;-88
2022/05/02 04:32:38;;;;;;;2.05;1.85;;;18.60;40.90;;;;;;5058010;28;20715;-85
2022/05/02 04:35:04;;;;;;;1.92;1.77;;;18.60;41.00;;;;;;5041302;28;20205;-87
2022/05/02 04:37:33;;;;;;;1.80;1.70;;;18.60;41.20;;;;;;5057489;28;20162;-86
2022/05/02 04:39:59;;;;;;;2.60;1.70;;;18.50;41.10;;;;;;5040948;28;20216;-87
2022/05/02 04:42:24;;;;;;;2.05;1.52;;;18.50;41.20;;;;;;5041053;28;20206;-88
2022/05/02 04:44:50;;;;;;;2.13;1.80;;;18.50;41.10;;;;;;5040752;28;20690;-88
2022/05/02 04:47:16;;;;;;;1.55;1.45;;;18.50;41.30;;;;;;5057087;28;20158;-83
2022/05/02 04:49:41;;;;;;;1.95;1.80;;;18.60;40.90;;;;;;5058082;28;20628;-86
2022/05/02 04:52:08;;;;;;;2.00;1.80;;;18.50;41.10;;;;;;5057744;28;20162;-83
2022/05/02 04:54:35;;;;;;;1.90;1.75;;;18.60;41.00;;;;;;5024633;28;20174;-88
2022/05/02 04:57:04;;;;;;;1.52;1.42;;;18.50;41.10;;;;;;5057497;28;20160;-88
2022/05/02 04:59:34;;;;;;;1.77;1.63;;;18.60;41.20;;;;;;5041171;28;20186;-87
2022/05/02 05:02:04;;;;;;;1.77;1.67;;;18.60;41.00;;;;;;5039705;28;20684;-83
2022/05/02 05:04:30;;;;;;;1.70;1.50;;;18.60;41.90;;;;;;5038937;28;20699;-86
2022/05/02 05:06:58;;;;;;;1.95;1.58;;;18.60;41.00;;;;;;5039139;28;20162;-84
2022/05/02 05:09:27;;;;;;;1.70;1.60;;;18.60;41.00;;;;;;5039209;28;20182;-86
2022/05/02 05:12:12;;;;;;;1.90;1.63;;;18.60;41.00;;;;;;5039673;28;20178;-86
2022/05/02 05:17:58;;;;;;;1.92;1.75;;;18.60;41.20;;;;;;5058237;28;20158;-84
2022/05/02 05:21:03;;;;;;;1.95;1.80;;;18.60;41.00;;;;;;5022886;28;20178;-86
2022/05/02 05:23:53;;;;;;;1.83;1.73;;;18.60;41.00;;;;;;5055988;28;20222;-87
2022/05/02 05:26:41;;;;;;;1.83;1.60;;;18.60;40.70;;;;;;5057340;28;20523;-88
2022/05/02 05:29:32;;;;;;;2.88;1.60;;;18.70;40.80;;;;;;5055867;28;20185;-87
2022/05/02 05:32:09;;;;;;;1.63;1.52;;;18.60;40.80;;;;;;5039471;28;20249;-85
2022/05/02 05:34:58;;;;;;;2.67;1.60;;;18.70;40.70;;;;;;5058769;28;20154;-84
2022/05/02 05:38:03;;;;;;;1.70;1.60;;;18.70;40.60;;;;;;5081781;28;20619;-87
2022/05/02 05:40:33;;;;;;;1.77;1.67;;;18.70;40.80;;;;;;5083539;28;20162;-89
2022/05/02 05:43:22;;;;;;;2.58;1.60;;;18.70;40.40;;;;;;5060228;28;20216;-87
2022/05/02 05:45:58;;;;;;;1.75;1.40;;;18.80;40.50;;;;;;5066701;28;20603;-89
2022/05/02 05:48:44;;;;;;;1.63;1.52;;;18.70;40.20;;;;;;5029278;28;20180;-88
2022/05/02 05:51:34;;;;;;;1.60;1.50;;;18.70;40.40;;;;;;5013667;28;20190;-86
2022/05/02 05:54:16;;;;;;;1.50;1.40;;;18.70;40.30;;;;;;5070582;28;20268;-87
2022/05/02 05:56:59;;;;;;;1.50;1.40;;;18.80;40.20;;;;;;5080325;28;20157;-87
2022/05/02 05:59:32;;;;;;;2.25;1.50;;;18.70;40.20;;;;;;5078013;28;20580;-87
2022/05/02 06:02:06;;;;;;;1.50;1.40;;;18.70;40.40;;;;;;5082662;28;20180;-85
2022/05/02 06:04:34;;;;;;;1.50;1.40;;;18.80;40.20;;;;;;5064891;28;20212;-83
2022/05/02 06:07:00;;;;;;;2.50;1.80;;;18.70;40.60;;;;;;5081167;28;20683;-84
2022/05/02 06:09:29;;;;;;;1.70;1.60;;;18.70;40.70;;;;;;5058188;28;20158;-84
2022/05/02 06:11:57;;;;;;;1.58;1.48;;;18.70;40.50;;;;;;5058256;28;20211;-87
2022/05/02 06:14:27;;;;;;;2.75;1.60;;;18.70;40.50;;;;;;5040127;28;20173;-86
2022/05/02 06:19:30;;;;;;;1.70;1.48;;;18.70;40.50;;;;;;5058827;28;20616;-82
2022/05/02 06:21:57;;;;;;;1.77;1.67;;;18.80;40.20;;;;;;5056329;28;20196;-87
2022/05/02 06:24:26;;;;;;;1.50;1.40;;;18.80;40.60;;;;;;5074186;28;20600;-84
2022/05/02 06:26:52;;;;;;;2.30;1.65;;;18.80;40.60;;;;;;5056942;28;20162;-87
2022/05/02 06:29:24;;;;;;;1.50;1.40;;;18.80;40.70;;;;;;5057564;28;20153;-86
2022/05/02 06:31:53;;;;;;;1.23;1.13;;;18.70;40.50;;;;;;5022580;28;20177;-83
2022/05/02 06:34:26;;;;;;;1.60;1.50;;;18.80;39.90;;;;;;5056175;28;20219;-87
2022/05/02 06:37:14;;;;;;;1.90;1.50;;;18.90;39.80;;;;;;5040384;28;20166;-83
2022/05/02 06:40:14;;;;;;;1.50;1.40;;;18.90;40.20;;;;;;5073403;28;20211;-84
2022/05/02 06:43:04;;;;;;;1.25;1.10;;;18.90;41.10;;;;;;5071828;28;20257;-82
2022/05/02 06:45:37;;;;;;;1.83;1.50;;;18.80;40.20;;;;;;5072120;28;20260;-82
2022/05/02 06:48:21;;;;;;;1.65;1.55;;;18.80;40.50;;;;;;5055814;28;20287;-82
2022/05/02 06:50:50;;;;;;;1.90;1.42;;;18.80;40.80;;;;;;5031164;28;20232;-83
2022/05/02 06:53:32;;;;;;;2.00;1.30;;;18.80;40.50;;;;;;5000501;28;20194;-81
2022/05/02 06:56:14;;;;;;;2.78;1.58;;;18.70;40.80;;;;;;5001945;28;20591;-83
2022/05/02 06:59:14;;;;;;;3.30;1.67;;;18.70;40.90;;;;;;5017048;28;20185;-89
2022/05/02 07:01:57;;;;;;;1.63;1.50;;;18.80;40.90;;;;;;5018956;28;20194;-86
2022/05/02 07:04:54;;;;;;;1.63;1.52;;;18.70;41.20;;;;;;5000044;28;20259;-85
2022/05/02 07:07:54;;;;;;;1.40;1.20;;;18.60;41.20;;;;;;5015064;28;20173;-82
2022/05/02 07:10:23;;;;;;;2.40;1.55;;;18.60;41.00;;;;;;5018852;28;20190;-86
2022/05/02 07:13:01;;;;;;;2.35;1.33;;;18.70;40.90;;;;;;5001646;28;20674;-86
2022/05/02 07:15:43;;;;;;;2.33;1.50;;;18.60;40.40;;;;;;4969681;28;20190;-86
2022/05/02 07:18:24;;;;;;;2.42;1.50;;;18.70;40.60;;;;;;4997461;28;20172;-85
2022/05/02 07:21:15;;;;;;;2.40;1.40;;;18.70;40.80;;;;;;4987753;28;20178;-85
2022/05/02 07:24:04;;;;;;;2.63;1.60;;;18.70;40.50;;;;;;5040829;28;20146;-83
2022/05/02 07:26:30;;;;;;;2.13;1.98;;;18.70;40.80;;;;;;5054193;28;20154;-87
2022/05/02 07:28:59;;;;;;;1.52;1.42;;;18.70;40.70;;;;;;5036001;28;20253;-86
2022/05/02 07:31:25;;;;;;;1.63;1.33;;;18.70;40.80;;;;;;5019310;28;20206;-87
2022/05/02 07:34:00;;;;;;;1.38;1.27;;;18.70;40.90;;;;;;5020168;28;20565;-87
2022/05/02 07:36:28;;;;;;;1.33;1.23;;;18.70;40.70;;;;;;5024390;28;20552;-86
2022/05/02 07:39:01;;;;;;;2.42;1.60;;;18.80;40.60;;;;;;5037332;28;20562;-87
2022/05/02 07:41:30;;;;;;;1.50;1.40;;;18.80;40.80;;;;;;5020087;28;20231;-87
2022/05/02 07:44:03;;;;;;;2.33;1.48;;;18.80;40.60;;;;;;5020654;28;20158;-86
2022/05/02 07:46:39;;;;;;;1.40;1.20;;;18.80;40.60;;;;;;5003241;28;20236;-86
2022/05/02 07:49:31;;;;;;;1.90;1.67;;;18.80;40.90;;;;;;5022676;28;20157;-88
2022/05/02 07:52:14;;;;;;;2.25;1.20;;;18.70;40.80;;;;;;5014831;28;20215;-88
2022/05/02 07:54:43;;;;;;;1.42;1.33;;;18.80;41.60;;;;;;4985762;28;20196;-87
2022/05/02 07:57:33;;;;;;;1.45;1.30;;;18.80;40.80;;;;;;5036330;28;20178;-89
2022/05/02 08:00:00;;;;;;;1.83;1.45;;;18.80;40.70;;;;;;5039581;28;20671;-87
2022/05/02 08:02:29;;;;;;;1.65;1.38;;;18.80;40.80;;;;;;5037613;28;20186;-88
2022/05/02 08:05:12;;;;;;;1.90;1.33;;;18.80;41.00;;;;;;5035369;28;20221;-88
2022/05/02 08:07:41;;;;;;;1.40;1.30;;;18.90;40.90;;;;;;5041210;28;20186;-87
2022/05/02 08:10:44;;;;;;;1.95;1.30;;;18.80;40.80;;;;;;5072482;28;20205;-88
2022/05/02 08:13:29;;;;;;;1.50;1.40;;;18.80;40.90;;;;;;5060290;28;20217;-88
2022/05/02 08:16:05;;;;;;;2.05;1.30;;;18.90;40.90;;;;;;5064253;28;20283;-87
2022/05/02 08:18:54;;;;;;;1.95;1.30;;;18.90;40.70;;;;;;5046272;28;20157;-88
2022/05/02 08:21:32;;;;;;;1.83;1.40;;;18.80;40.50;;;;;;5054102;28;20190;-88
2022/05/02 08:27:58;;;;;;;1.90;1.50;;;19.00;40.50;;;;;;5066263;28;20689;-87
2022/05/02 08:30:34;;;;;;;1.73;1.35;;;18.90;40.50;;;;;;5052406;28;20169;-88
2022/05/02 08:33:46;;;;;;;2.03;1.58;;;18.90;40.40;;;;;;5049464;28;20216;-85
2022/05/02 08:36:34;;;;;;;2.42;1.20;;;18.90;40.60;;;;;;5099920;28;20177;-86
2022/05/02 08:39:04;;;;;;;1.85;1.30;;;18.90;40.50;;;;;;5042171;28;20190;-87
2022/05/02 08:42:04;;;;;;;1.50;1.40;;;19.00;40.30;;;;;;5045880;28;20185;-86
2022/05/02 08:44:44;;;;;;;2.95;1.30;;;19.00;40.30;;;;;;5047199;28;20519;-86
2022/05/02 08:47:35;;;;;;;1.40;1.30;;;18.90;40.20;;;;;;5036186;28;20175;-86
2022/05/02 08:50:43;;;;;;;1.50;1.40;;;19.00;40.40;;;;;;5023455;28;20163;-87
2022/05/02 08:53:35;;;;;;;1.80;1.48;;;18.90;40.50;;;;;;5019672;28;20318;-84
2022/05/02 08:59:41;;;;;;;1.55;1.27;;;18.90;40.70;;;;;;5020370;28;20309;-85
2022/05/02 09:02:52;;;;;;;2.28;1.20;;;18.80;40.80;;;;;;5008443;28;20303;-82
2022/05/02 09:05:49;;;;;;;1.50;1.40;;;18.80;41.00;;;;;;5020888;28;20207;-82
2022/05/02 09:08:54;;;;;;;2.53;1.33;;;18.80;41.30;;;;;;5002073;28;20195;-84
2022/05/02 09:11:54;;;;;;;1.92;1.40;;;18.80;41.00;;;;;;5037805;28;20216;-86
2022/05/02 09:14:54;;;;;;;1.83;1.40;;;18.80;41.30;;;;;;5039106;28;20182;-85
2022/05/02 09:20:59;;;;;;;1.58;1.48;;;18.70;41.10;;;;;;5065426;28;20195;-83
2022/05/02 09:24:05;;;;;;;1.40;1.30;;;18.80;40.70;;;;;;5009925;28;20216;-87
2022/05/02 09:26:44;;;;;;;1.33;1.23;;;18.80;41.10;;;;;;5041926;28;20173;-85
2022/05/02 09:29:35;;;;;;;1.95;1.20;;;18.80;41.20;;;;;;5054387;28;20158;-84
2022/05/02 09:32:08;;;;;;;1.75;1.40;;;18.90;40.80;;;;;;5053974;28;20535;-83
2022/05/02 09:35:39;;;;;;;2.30;1.33;;;18.80;40.90;;;;;;5037582;28;20166;-87
2022/05/02 09:37:41;;;;;;;1.40;1.30;;;18.90;40.90;;;;;;5042577;28;20214;-87
2022/05/02 09:40:12;;;;;;;1.30;1.20;;;18.90;41.30;;;;;;5055867;28;20204;-84
2022/05/02 09:42:54;;;;;;;1.35;1.25;;;18.90;40.80;;;;;;5020068;28;20277;-84
2022/05/02 09:51:44;;;;;;;1.40;1.25;;;19.00;40.80;;;;;;5054137;28;20238;-82
2022/05/02 09:57:23;;;;;;;2.83;1.50;;;18.90;40.80;;;;;;5069681;28;20172;-86
2022/05/02 10:02:30;;;;;;;1.85;1.20;;;19.00;40.80;;;;;;5058519;28;20193;-84
2022/05/02 10:05:13;;;;;;;1.75;1.48;;;19.00;40.80;;;;;;5056641;28;20305;-83
2022/05/02 10:07:58;;;;;;;2.25;1.27;;;19.00;41.10;;;;;;5016279;28;20676;-82
2022/05/02 10:11:06;;;;;;;2.22;1.50;;;19.00;41.00;;;;;;5032071;28;20185;-86
2022/05/02 10:13:37;;;;;;;2.05;1.50;;;19.00;41.00;;;;;;5015434;28;20250;-89
2022/05/02 10:16:15;;;;;;;1.33;1.23;;;18.90;41.10;;;;;;5015990;28;20272;-85
2022/05/02 10:19:01;;;;;;;1.92;1.45;;;18.90;41.20;;;;;;5005802;28;20179;-86
2022/05/02 10:22:04;;;;;;;1.63;1.20;;;18.90;41.00;;;;;;5008249;28;20182;-87
2022/05/02 10:24:55;;;;;;;1.60;1.50;;;18.90;40.80;;;;;;5009189;28;20183;-82
2022/05/02 10:27:54;;;;;;;1.98;1.30;;;19.10;40.80;;;;;;5007810;28;20185;-88
2022/05/02 10:30:41;;;;;;;2.10;1.40;;;19.00;40.80;;;;;;5008421;28;20235;-85
2022/05/02 10:33:12;;;;;;;1.30;1.15;;;19.10;40.70;;;;;;4999926;28;20186;-87
2022/05/02 10:35:44;;;;;;;1.20;1.10;;;19.10;40.90;;;;;;5015635;28;20653;-84
2022/05/02 10:38:18;;;;;;;2.38;1.70;;;19.10;40.80;;;;;;5006365;28;20187;-84
2022/05/02 10:40:50;;;;;;;1.50;1.27;;;19.10;40.80;;;;;;4958293;28;20220;-83
2022/05/02 10:43:35;;;;;;;2.85;1.30;;;19.00;40.90;;;;;;4968031;28;20222;-88
2022/05/02 10:46:03;;;;;;;1.52;1.42;;;19.10;40.70;;;;;;4980162;28;20179;-86
2022/05/02 10:48:41;;;;;;;1.25;1.15;;;19.00;40.70;;;;;;4986711;28;20186;-84
2022/05/02 10:51:18;;;;;;;1.30;1.20;;;19.00;40.60;;;;;;4986200;28;20190;-83
2022/05/02 10:53:57;;;;;;;2.72;1.70;;;19.00;40.20;;;;;;4973410;28;20183;-88
2022/05/02 10:56:47;;;;;;;1.42;1.33;;;19.10;40.00;;;;;;4973665;28;20187;-87
2022/05/02 10:59:19;;;;;;;3.45;1.45;;;19.10;40.30;;;;;;4988274;28;20193;-85
2022/05/02 11:02:24;;;;;;;3.95;1.30;;;19.10;39.70;;;;;;4972552;28;20206;-85
2022/05/02 11:05:31;;;;;;;1.52;1.15;;;19.20;39.90;;;;;;4984237;28;20244;-85
2022/05/02 11:08:14;;;;;;;5.13;1.77;;;19.20;39.80;;;;;;4956927;28;20186;-88
2022/05/02 11:10:49;;;;;;;1.25;1.15;;;19.20;39.60;;;;;;5003019;28;20180;-85
2022/05/02 11:13:26;;;;;;;2.33;1.30;;;19.20;39.70;;;;;;5000772;28;20184;-85
2022/05/02 11:16:02;;;;;;;1.67;1.20;;;19.20;40.00;;;;;;5011248;28;20181;-85
2022/05/02 11:22:08;;;;;;;2.85;1.40;;;19.20;39.50;;;;;;5042219;28;20205;-89
2022/05/02 11:24:52;;;;;;;1.42;1.33;;;19.40;39.10;;;;;;5002474;28;20209;-85
2022/05/02 11:27:49;;;;;;;;;;;;;;;;;;;;;
2022/05/02 11:30:28;;;;;;;3.72;1.60;;;19.40;39.40;;;;;;5045631;28;20269;-88
2022/05/02 11:33:34;;;;;;;2.75;1.38;;;19.40;39.50;;;;;;5031960;28;20181;-87
2022/05/02 11:36:03;;;;;;;2.30;1.52;;;19.40;39.40;;;;;;5059971;28;20193;-89
2022/05/02 11:42:51;;;;;;;1.67;1.20;;;19.40;39.10;;;;;;5079342;28;20334;-83
2022/05/02 11:45:33;;;;;;;1.67;1.50;;;19.40;39.10;;;;;;5046640;28;20244;-81
2022/05/02 11:48:32;;;;;;;1.65;1.40;;;19.40;38.80;;;;;;5000928;28;20181;-81
2022/05/02 11:51:07;;;;;;;1.63;1.20;;;19.40;38.70;;;;;;5033450;28;20176;-83
2022/05/02 11:53:36;;;;;;;1.35;1.20;;;19.40;38.40;;;;;;4993267;28;20185;-87
2022/05/02 11:56:06;;;;;;;1.75;1.35;;;19.40;39.70;;;;;;4995034;28;20786;-88
2022/05/02 11:58:36;;;;;;;4.80;1.30;;;19.40;39.90;;;;;;5009316;28;20523;-88
2022/05/02 12:01:06;;;;;;;3.35;1.50;;;19.40;39.50;;;;;;5040952;28;20250;-85
2022/05/02 12:03:51;;;;;;;3.28;1.30;;;19.30;39.70;;;;;;4967493;28;20666;-87
2022/05/02 12:06:17;;;;;;;3.80;1.35;;;19.40;39.30;;;;;;4983286;28;20654;-86
2022/05/02 12:09:13;;;;;;;3.22;1.48;;;19.40;39.00;;;;;;4952960;28;20179;-83
2022/05/02 12:12:07;;;;;;;2.60;1.15;;;19.50;39.30;;;;;;4918858;29;20208;-87
2022/05/02 12:14:43;;;;;;;;;;;;;;;;;;;;;
2022/05/02 12:17:11;;;;;;;3.25;1.25;;;19.50;39.20;;;;;;4906593;29;20282;-86
2022/05/02 12:19:45;;;;;;;2.80;1.27;;;19.50;39.10;;;;;;4918697;29;20222;-88
2022/05/02 12:22:34;;;;;;;1.73;1.10;;;19.40;38.70;;;;;;4921639;29;20213;-84
2022/05/02 12:25:05;;;;;;;1.83;1.40;;;19.50;39.50;;;;;;4895503;29;20316;-88
2022/05/02 12:27:37;;;;;;;2.22;1.40;;;19.50;39.20;;;;;;4887487;29;20186;-85
2022/05/02 12:30:15;;;;;;;2.13;1.27;;;19.50;38.90;;;;;;4903340;29;20228;-86
2022/05/02 12:32:41;;;;;;;2.35;1.10;;;19.50;40.10;;;;;;4889808;29;20261;-85
2022/05/02 12:35:19;;;;;;;3.05;1.38;;;19.50;39.50;;;;;;4932350;29;20216;-86
2022/05/02 12:38:52;;;;;;;1.60;1.35;;;19.50;39.10;;;;;;4955885;29;20621;-86
2022/05/02 12:41:16;;;;;;;1.45;1.20;;;19.50;39.00;;;;;;4927978;29;20193;-87
2022/05/02 12:43:59;;;;;;;1.35;1.25;;;19.50;39.20;;;;;;4897513;29;20275;-88
2022/05/02 12:46:32;;;;;;;2.90;1.27;;;19.50;39.40;;;;;;4896471;29;20187;-85
2022/05/02 12:49:10;;;;;;;1.25;1.08;;;19.50;39.30;;;;;;4983893;28;20185;-87
2022/05/02 12:51:36;;;;;;;1.77;1.27;;;19.60;39.30;;;;;;4996749;28;20188;-86
2022/05/02 12:54:12;;;;;;;1.60;1.50;;;19.50;38.90;;;;;;5080941;28;20153;-86
2022/05/02 13:00:30;;;;;;;2.47;1.70;;;19.50;39.10;;;;;;5062343;28;20177;-85
2022/05/02 13:02:44;;;;;;;2.03;1.20;;;19.60;39.00;;;;;;5064815;28;20660;-83
2022/05/02 13:05:19;;;;;;;2.22;1.50;;;19.60;39.20;;;;;;5061089;28;20578;-87
2022/05/02 13:07:47;;;;;;;2.35;1.27;;;19.70;39.50;;;;;;5061881;28;20149;-88
2022/05/02 13:10:37;;;;;;;2.22;1.27;;;19.60;39.50;;;;;;5060042;28;20146;-84
2022/05/02 13:16:52;;;;;;;1.42;1.33;;;19.60;39.70;;;;;;4937917;29;20676;-84
2022/05/02 13:19:35;;;;;;;1.33;1.23;;;19.60;39.50;;;;;;4924053;29;20216;-86
2022/05/02 13:22:01;;;;;;;2.05;1.20;;;19.60;40.50;;;;;;4892055;29;20759;-85
2022/05/02 13:24:37;;;;;;;1.42;1.33;;;19.60;39.80;;;;;;4938972;29;20178;-86
2022/05/02 13:27:37;;;;;;;1.40;1.30;;;19.60;39.90;;;;;;4923523;29;20623;-86
2022/05/02 13:30:10;;;;;;;1.70;1.30;;;19.60;39.80;;;;;;4922353;29;20669;-85
2022/05/02 13:32:51;;;;;;;1.50;1.40;;;19.60;39.60;;;;;;4907616;29;20217;-88
2022/05/02 13:35:33;;;;;;;1.73;1.50;;;19.60;39.70;;;;;;4910845;29;20194;-86
2022/05/02 13:38:11;;;;;;;1.50;1.40;;;19.70;39.50;;;;;;4908452;29;20189;-87
2022/05/02 13:40:56;;;;;;;1.58;1.35;;;19.70;39.60;;;;;;4923511;29;20622;-85
2022/05/02 13:43:43;;;;;;;2.67;1.45;;;19.70;39.80;;;;;;4922021;29;20241;-87
2022/05/02 13:46:21;;;;;;;1.83;1.30;;;19.70;39.90;;;;;;4922620;29;20550;-86
2022/05/02 13:49:03;;;;;;;1.75;1.38;;;19.70;39.70;;;;;;4921033;29;20181;-85
2022/05/02 13:51:33;;;;;;;4.90;1.48;;;19.60;40.00;;;;;;4935523;28;20549;-87
2022/05/02 13:54:02;;;;;;;1.52;1.38;;;19.60;39.90;;;;;;5034108;28;20541;-85
2022/05/02 13:57:02;;;;;;;1.23;1.00;;;19.70;39.70;;;;;;5020997;28;20261;-86
2022/05/02 13:59:38;;;;;;;1.58;1.20;;;19.70;39.80;;;;;;5055850;28;20277;-86
2022/05/02 14:02:37;;;;;;;1.45;1.35;;;19.70;40.00;;;;;;5025150;28;20193;-86
2022/05/02 14:05:13;;;;;;;1.35;1.23;;;19.70;39.90;;;;;;5025937;28;20221;-86
2022/05/02 14:07:40;;;;;;;4.00;1.40;;;19.70;39.90;;;;;;5022083;28;20223;-85
2022/05/02 14:10:06;;;;;;;1.83;1.40;;;19.80;40.00;;;;;;5021778;28;20177;-84
2022/05/02 14:12:37;;;;;;;1.20;1.10;;;19.70;40.10;;;;;;5020241;28;20629;-84
2022/05/02 14:15:06;;;;;;;3.22;1.45;;;19.70;40.10;;;;;;5038424;28;20154;-84
2022/05/02 14:17:41;;;;;;;2.00;1.30;;;19.70;40.10;;;;;;5038639;28;20496;-84